PWSweather.com
Personal Weather Stations
Station Observations
WATERF01
WaterfordIE

WaterfordIE

Lat: 52.2412507, Lon: -7.1414691

Elevation: 65

Station Type: Davis Vantage Vue

www.waterfordweather.com

High Low Average
Temperature 64.6°F18.1°C 44.3°F6.8°C 54.6°F12.6°C
Dew Point 49.6°F9.8°C 40.7°F4.8°C 45.6°F7.6°C
Winds 9.2 mph 14.8 kmh Calm Calm 2.0 mph W3.2 kmh W
Wind Gusts 13.8 mph22.2 kmh -- 5.0 mph8.0 kmh
Humidity 88% 51% 73%
Pressure 30.07 in1018.3 mb 29.91 in1012.9 mb -
Precipitation 0.01 in0.3 mm - -
Hour Temp Dew Point Humidity Winds Wind Gusts Pressure Precip Precip Rate Daily Precip Total
12:00 AM 49.3°F9.6°C 45.0°F7.2°C 85% 2.3 mph WNW3.7 kmh WNW 4.6 mph7.4 kmh 30.03 in1016.9 mb - 0.00 in0.0 mm 0.00 in0.0 mm
12:10 AM 48.8°F9.3°C 44.5°F6.9°C 85% 2.3 mph WNW3.7 kmh WNW 4.6 mph7.4 kmh 30.03 in1016.9 mb - 0.00 in0.0 mm 0.00 in0.0 mm
12:20 AM 48.4°F9.1°C 44.1°F6.7°C 85% 1.2 mph W1.9 kmh W 2.3 mph3.7 kmh 30.03 in1016.9 mb - 0.00 in0.0 mm 0.00 in0.0 mm
12:30 AM 48.1°F8.9°C 44.1°F6.7°C 86% Calm Calm -- 30.03 in1016.9 mb - 0.00 in0.0 mm 0.00 in0.0 mm
12:40 AM 47.7°F8.7°C 43.7°F6.5°C 86% Calm Calm -- 30.03 in1016.9 mb - 0.00 in0.0 mm 0.00 in0.0 mm
12:50 AM 47.1°F8.4°C 43.1°F6.2°C 86% Calm Calm -- 30.03 in1016.9 mb - 0.00 in0.0 mm 0.00 in0.0 mm
01:00 AM 46.4°F8.0°C 42.4°F5.8°C 86% Calm Calm -- 30.03 in1016.9 mb - 0.00 in0.0 mm 0.00 in0.0 mm
01:10 AM 46.5°F8.1°C 42.8°F6.0°C 87% Calm Calm -- 30.03 in1016.9 mb - 0.00 in0.0 mm 0.00 in0.0 mm
01:20 AM 46.7°F8.2°C 43.1°F6.2°C 87% Calm Calm -- 30.03 in1016.9 mb - 0.00 in0.0 mm 0.00 in0.0 mm
01:30 AM 46.8°F8.2°C 43.1°F6.2°C 87% 1.2 mph WNW1.9 kmh WNW 2.3 mph3.7 kmh 30.03 in1016.9 mb - 0.00 in0.0 mm 0.00 in0.0 mm
01:40 AM 46.9°F8.3°C 43.2°F6.2°C 87% 1.2 mph NW1.9 kmh NW 2.3 mph3.7 kmh 30.03 in1016.9 mb - 0.00 in0.0 mm 0.00 in0.0 mm
01:50 AM 47.0°F8.3°C 43.4°F6.3°C 87% 1.2 mph WNW1.9 kmh WNW 2.3 mph3.7 kmh 30.03 in1016.9 mb - 0.00 in0.0 mm 0.00 in0.0 mm
02:00 AM 47.1°F8.4°C 43.4°F6.3°C 87% Calm Calm 4.6 mph7.4 kmh 30.03 in1016.9 mb - 0.00 in0.0 mm 0.00 in0.0 mm
02:10 AM 47.2°F8.4°C 43.5°F6.4°C 87% Calm Calm 1.2 mph1.9 kmh 30.04 in1017.3 mb - 0.00 in0.0 mm 0.00 in0.0 mm
02:20 AM 47.1°F8.4°C 43.4°F6.3°C 87% Calm Calm -- 30.03 in1016.9 mb - 0.00 in0.0 mm 0.00 in0.0 mm
02:30 AM 46.5°F8.1°C 42.9°F6.1°C 87% 1.2 mph W1.9 kmh W 2.3 mph3.7 kmh 30.04 in1017.3 mb - 0.00 in0.0 mm 0.00 in0.0 mm
02:40 AM 46.4°F8.0°C 42.7°F5.9°C 87% Calm Calm -- 30.04 in1017.3 mb - 0.00 in0.0 mm 0.00 in0.0 mm
02:50 AM 46.5°F8.1°C 42.8°F6.0°C 87% 1.2 mph NW1.9 kmh NW 2.3 mph3.7 kmh 30.04 in1017.3 mb - 0.00 in0.0 mm 0.00 in0.0 mm
03:00 AM 46.4°F8.0°C 42.8°F6.0°C 87% Calm Calm -- 30.04 in1017.3 mb - 0.00 in0.0 mm 0.00 in0.0 mm
03:10 AM 46.2°F7.9°C 42.5°F5.8°C 87% 2.3 mph WNW3.7 kmh WNW 3.5 mph5.6 kmh 30.04 in1017.3 mb - 0.00 in0.0 mm 0.00 in0.0 mm
03:20 AM 46.1°F7.8°C 42.4°F5.8°C 87% Calm Calm 2.3 mph3.7 kmh 30.03 in1016.9 mb - 0.00 in0.0 mm 0.00 in0.0 mm
03:30 AM 45.9°F7.7°C 42.3°F5.7°C 87% Calm Calm 2.3 mph3.7 kmh 30.04 in1017.3 mb - 0.00 in0.0 mm 0.00 in0.0 mm
03:40 AM 46.1°F7.8°C 42.4°F5.8°C 87% 1.2 mph WNW1.9 kmh WNW 2.3 mph3.7 kmh 30.04 in1017.3 mb - 0.00 in0.0 mm 0.00 in0.0 mm
03:50 AM 46.2°F7.9°C 42.6°F5.9°C 87% Calm Calm 2.3 mph3.7 kmh 30.04 in1017.3 mb - 0.00 in0.0 mm 0.00 in0.0 mm
04:00 AM 46.3°F7.9°C 42.6°F5.9°C 87% 1.2 mph NW1.9 kmh NW 4.6 mph7.4 kmh 30.04 in1017.3 mb - 0.00 in0.0 mm 0.00 in0.0 mm
04:10 AM 46.2°F7.9°C 42.5°F5.8°C 87% Calm Calm -- 30.04 in1017.3 mb - 0.00 in0.0 mm 0.00 in0.0 mm
04:20 AM 46.1°F7.8°C 42.4°F5.8°C 87% Calm Calm -- 30.04 in1017.3 mb - 0.00 in0.0 mm 0.00 in0.0 mm
04:30 AM 45.7°F7.6°C 42.1°F5.6°C 87% Calm Calm -- 30.04 in1017.3 mb - 0.00 in0.0 mm 0.00 in0.0 mm
04:40 AM 45.2°F7.3°C 41.6°F5.3°C 87% Calm Calm -- 30.04 in1017.3 mb - 0.00 in0.0 mm 0.00 in0.0 mm
04:50 AM 44.8°F7.1°C 41.2°F5.1°C 87% Calm Calm -- 30.05 in1017.6 mb - 0.00 in0.0 mm 0.00 in0.0 mm
05:00 AM 44.6°F7.0°C 41.0°F5.0°C 87% Calm Calm -- 30.04 in1017.3 mb - 0.00 in0.0 mm 0.00 in0.0 mm
05:10 AM 44.3°F6.8°C 40.7°F4.8°C 87% Calm Calm -- 30.05 in1017.6 mb - 0.00 in0.0 mm 0.00 in0.0 mm
05:20 AM 44.5°F6.9°C 41.2°F5.1°C 88% Calm Calm -- 30.05 in1017.6 mb - 0.00 in0.0 mm 0.00 in0.0 mm
05:30 AM 44.5°F6.9°C 41.2°F5.1°C 88% Calm Calm -- 30.05 in1017.6 mb - 0.00 in0.0 mm 0.00 in0.0 mm
05:40 AM 44.3°F6.8°C 41.0°F5.0°C 88% Calm Calm -- 30.05 in1017.6 mb - 0.00 in0.0 mm 0.00 in0.0 mm
05:50 AM 44.6°F7.0°C 41.3°F5.2°C 88% Calm Calm -- 30.05 in1017.6 mb - 0.00 in0.0 mm 0.00 in0.0 mm
06:00 AM 45.0°F7.2°C 41.7°F5.4°C 88% Calm Calm -- 30.05 in1017.6 mb - 0.00 in0.0 mm 0.00 in0.0 mm
06:10 AM 45.0°F7.2°C 41.7°F5.4°C 88% Calm Calm -- 30.06 in1017.9 mb - 0.00 in0.0 mm 0.00 in0.0 mm
06:20 AM 45.3°F7.4°C 42.0°F5.6°C 88% Calm Calm -- 30.06 in1017.9 mb - 0.00 in0.0 mm 0.00 in0.0 mm
06:30 AM 45.8°F7.7°C 42.4°F5.8°C 88% 1.2 mph WNW1.9 kmh WNW 2.3 mph3.7 kmh 30.06 in1017.9 mb - 0.00 in0.0 mm 0.00 in0.0 mm
06:40 AM 46.1°F7.8°C 42.8°F6.0°C 88% 2.3 mph W3.7 kmh W 4.6 mph7.4 kmh 30.06 in1017.9 mb - 0.00 in0.0 mm 0.00 in0.0 mm
06:50 AM 46.4°F8.0°C 42.7°F5.9°C 87% Calm Calm -- 30.06 in1017.9 mb - 0.00 in0.0 mm 0.00 in0.0 mm
07:00 AM 46.7°F8.2°C 43.0°F6.1°C 87% 1.2 mph WNW1.9 kmh WNW 2.3 mph3.7 kmh 30.06 in1017.9 mb - 0.00 in0.0 mm 0.00 in0.0 mm
07:10 AM 47.0°F8.3°C 43.3°F6.3°C 87% 2.3 mph WNW3.7 kmh WNW 2.3 mph3.7 kmh 30.06 in1017.9 mb - 0.00 in0.0 mm 0.00 in0.0 mm
07:20 AM 47.5°F8.6°C 43.8°F6.6°C 87% 3.5 mph NW5.6 kmh NW 6.9 mph11.1 kmh 30.06 in1017.9 mb - 0.00 in0.0 mm 0.00 in0.0 mm
07:30 AM 48.1°F8.9°C 44.4°F6.9°C 87% 3.5 mph W5.6 kmh W 5.8 mph9.3 kmh 30.06 in1017.9 mb - 0.00 in0.0 mm 0.00 in0.0 mm
07:40 AM 48.7°F9.3°C 44.7°F7.1°C 86% Calm Calm 2.3 mph3.7 kmh 30.07 in1018.3 mb - 0.00 in0.0 mm 0.00 in0.0 mm
07:50 AM 49.3°F9.6°C 45.3°F7.4°C 86% 1.2 mph W1.9 kmh W 2.3 mph3.7 kmh 30.07 in1018.3 mb - 0.00 in0.0 mm 0.00 in0.0 mm
08:00 AM 49.9°F9.9°C 45.6°F7.6°C 85% 2.3 mph WNW3.7 kmh WNW 5.8 mph9.3 kmh 30.07 in1018.3 mb - 0.00 in0.0 mm 0.00 in0.0 mm
08:10 AM 50.8°F10.4°C 46.5°F8.1°C 85% 1.2 mph NW1.9 kmh NW 5.8 mph9.3 kmh 30.07 in1018.3 mb - 0.00 in0.0 mm 0.00 in0.0 mm
08:20 AM 51.8°F11.0°C 46.8°F8.2°C 83% 1.2 mph WNW1.9 kmh WNW 1.2 mph1.9 kmh 30.07 in1018.3 mb - 0.00 in0.0 mm 0.00 in0.0 mm
08:30 AM 52.5°F11.4°C 47.2°F8.4°C 82% 3.5 mph NW5.6 kmh NW 8.1 mph13.0 kmh 30.07 in1018.3 mb - 0.00 in0.0 mm 0.00 in0.0 mm
08:40 AM 53.0°F11.7°C 47.0°F8.3°C 80% 2.3 mph NW3.7 kmh NW 8.1 mph13.0 kmh 30.07 in1018.3 mb - 0.00 in0.0 mm 0.00 in0.0 mm
08:50 AM 53.5°F11.9°C 47.1°F8.4°C 79% 3.5 mph NW5.6 kmh NW 6.9 mph11.1 kmh 30.07 in1018.3 mb - 0.00 in0.0 mm 0.00 in0.0 mm
09:00 AM 54.1°F12.3°C 47.0°F8.3°C 77% 3.5 mph NW5.6 kmh NW 8.1 mph13.0 kmh 30.07 in1018.3 mb - 0.00 in0.0 mm 0.00 in0.0 mm
09:10 AM 54.6°F12.6°C 47.5°F8.6°C 77% 4.6 mph NW7.4 kmh NW 8.1 mph13.0 kmh 30.07 in1018.3 mb - 0.00 in0.0 mm 0.00 in0.0 mm
09:20 AM 54.9°F12.7°C 47.8°F8.8°C 77% 2.3 mph NW3.7 kmh NW 5.8 mph9.3 kmh 30.07 in1018.3 mb - 0.00 in0.0 mm 0.00 in0.0 mm
09:30 AM 55.6°F13.1°C 47.8°F8.8°C 75% 3.5 mph WNW5.6 kmh WNW 5.8 mph9.3 kmh 30.07 in1018.3 mb - 0.00 in0.0 mm 0.00 in0.0 mm
09:40 AM 55.8°F13.2°C 47.6°F8.7°C 74% 2.3 mph NW3.7 kmh NW 4.6 mph7.4 kmh 30.07 in1018.3 mb - 0.00 in0.0 mm 0.00 in0.0 mm
09:50 AM 56.7°F13.7°C 48.5°F9.2°C 74% 4.6 mph WNW7.4 kmh WNW 8.1 mph13.0 kmh 30.07 in1018.3 mb - 0.00 in0.0 mm 0.00 in0.0 mm
10:00 AM 56.8°F13.8°C 47.9°F8.8°C 72% 3.5 mph NW5.6 kmh NW 5.8 mph9.3 kmh 30.07 in1018.3 mb - 0.00 in0.0 mm 0.00 in0.0 mm
10:10 AM 57.6°F14.2°C 48.6°F9.2°C 72% 2.3 mph NW3.7 kmh NW 5.8 mph9.3 kmh 30.07 in1018.3 mb - 0.00 in0.0 mm 0.00 in0.0 mm
10:20 AM 58.2°F14.6°C 47.7°F8.7°C 68% Calm Calm 5.8 mph9.3 kmh 30.07 in1018.3 mb - 0.00 in0.0 mm 0.00 in0.0 mm
10:30 AM 58.6°F14.8°C 48.4°F9.1°C 69% 4.6 mph NNW7.4 kmh NNW 9.2 mph14.8 kmh 30.07 in1018.3 mb - 0.00 in0.0 mm 0.00 in0.0 mm
10:40 AM 59.1°F15.1°C 48.5°F9.2°C 68% 2.3 mph WNW3.7 kmh WNW 5.8 mph9.3 kmh 30.07 in1018.3 mb - 0.00 in0.0 mm 0.00 in0.0 mm
10:50 AM 58.8°F14.9°C 46.6°F8.1°C 64% Calm Calm 2.3 mph3.7 kmh 30.06 in1017.9 mb - 0.00 in0.0 mm 0.00 in0.0 mm
11:00 AM 59.0°F15.0°C 46.0°F7.8°C 62% 3.5 mph W5.6 kmh W 5.8 mph9.3 kmh 30.06 in1017.9 mb - 0.00 in0.0 mm 0.00 in0.0 mm
11:10 AM 59.2°F15.1°C 46.2°F7.9°C 62% 1.2 mph WNW1.9 kmh WNW 5.8 mph9.3 kmh 30.06 in1017.9 mb - 0.00 in0.0 mm 0.00 in0.0 mm
11:20 AM 59.6°F15.3°C 45.3°F7.4°C 59% 1.2 mph NW1.9 kmh NW 4.6 mph7.4 kmh 30.06 in1017.9 mb - 0.00 in0.0 mm 0.00 in0.0 mm
11:30 AM 60.6°F15.9°C 45.7°F7.6°C 58% 5.8 mph WNW9.3 kmh WNW 8.1 mph13.0 kmh 30.06 in1017.9 mb - 0.00 in0.0 mm 0.00 in0.0 mm
11:40 AM 59.5°F15.3°C 44.2°F6.8°C 57% 2.3 mph NNW3.7 kmh NNW 5.8 mph9.3 kmh 30.06 in1017.9 mb - 0.00 in0.0 mm 0.00 in0.0 mm
11:50 AM 60.7°F15.9°C 45.3°F7.4°C 57% 2.3 mph ESE3.7 kmh ESE 4.6 mph7.4 kmh 30.05 in1017.6 mb - 0.00 in0.0 mm 0.00 in0.0 mm
12:00 PM 61.9°F16.6°C 45.1°F7.3°C 54% 3.5 mph WNW5.6 kmh WNW 6.9 mph11.1 kmh 30.05 in1017.6 mb - 0.00 in0.0 mm 0.00 in0.0 mm
12:10 PM 60.6°F15.9°C 43.3°F6.3°C 53% 3.5 mph NW5.6 kmh NW 5.8 mph9.3 kmh 30.05 in1017.6 mb - 0.00 in0.0 mm 0.00 in0.0 mm
12:20 PM 61.1°F16.2°C 45.3°F7.4°C 56% 1.2 mph W1.9 kmh W 4.6 mph7.4 kmh 30.05 in1017.6 mb - 0.00 in0.0 mm 0.00 in0.0 mm
12:30 PM 62.4°F16.9°C 44.5°F6.9°C 52% 5.8 mph W9.3 kmh W 8.1 mph13.0 kmh 30.05 in1017.6 mb - 0.00 in0.0 mm 0.00 in0.0 mm
12:40 PM 62.1°F16.7°C 44.2°F6.8°C 52% 3.5 mph WNW5.6 kmh WNW 6.9 mph11.1 kmh 30.05 in1017.6 mb - 0.00 in0.0 mm 0.00 in0.0 mm
12:50 PM 62.5°F16.9°C 44.6°F7.0°C 52% 1.2 mph W1.9 kmh W 2.3 mph3.7 kmh 30.05 in1017.6 mb - 0.00 in0.0 mm 0.00 in0.0 mm
01:00 PM 62.4°F16.9°C 44.5°F6.9°C 52% 2.3 mph N3.7 kmh N 8.1 mph13.0 kmh 30.05 in1017.6 mb - 0.00 in0.0 mm 0.00 in0.0 mm
01:10 PM 62.1°F16.7°C 43.7°F6.5°C 51% 3.5 mph SW5.6 kmh SW 5.8 mph9.3 kmh 30.05 in1017.6 mb - 0.00 in0.0 mm 0.00 in0.0 mm
01:20 PM 62.8°F17.1°C 44.4°F6.9°C 51% 5.8 mph NW9.3 kmh NW 8.1 mph13.0 kmh 30.04 in1017.3 mb - 0.00 in0.0 mm 0.00 in0.0 mm
01:30 PM 62.3°F16.8°C 44.0°F6.7°C 51% Calm Calm 2.3 mph3.7 kmh 30.04 in1017.3 mb - 0.00 in0.0 mm 0.00 in0.0 mm
01:40 PM 62.8°F17.1°C 44.9°F7.2°C 52% 4.6 mph NNW7.4 kmh NNW 6.9 mph11.1 kmh 30.04 in1017.3 mb - 0.00 in0.0 mm 0.00 in0.0 mm
01:50 PM 62.8°F17.1°C 47.3°F8.5°C 57% 3.5 mph W5.6 kmh W 5.8 mph9.3 kmh 30.04 in1017.3 mb - 0.00 in0.0 mm 0.00 in0.0 mm
02:00 PM 62.6°F17.0°C 47.1°F8.4°C 57% 4.6 mph W7.4 kmh W 11.5 mph18.5 kmh 30.03 in1016.9 mb - 0.00 in0.0 mm 0.00 in0.0 mm
02:10 PM 62.3°F16.8°C 47.8°F8.8°C 59% 5.8 mph WSW9.3 kmh WSW 13.8 mph22.2 kmh 30.03 in1016.9 mb - 0.00 in0.0 mm 0.00 in0.0 mm
02:20 PM 63.6°F17.6°C 48.5°F9.2°C 58% 6.9 mph W11.1 kmh W 9.2 mph14.8 kmh 30.03 in1016.9 mb - 0.00 in0.0 mm 0.00 in0.0 mm
02:30 PM 64.1°F17.8°C 48.5°F9.2°C 57% 6.9 mph W11.1 kmh W 12.7 mph20.4 kmh 30.03 in1016.9 mb - 0.00 in0.0 mm 0.00 in0.0 mm
02:40 PM 64.4°F18.0°C 48.3°F9.1°C 56% 5.8 mph WNW9.3 kmh WNW 11.5 mph18.5 kmh 30.03 in1016.9 mb - 0.00 in0.0 mm 0.00 in0.0 mm
02:50 PM 64.6°F18.1°C 49.0°F9.4°C 57% 8.1 mph WSW13.0 kmh WSW 13.8 mph22.2 kmh 30.03 in1016.9 mb - 0.00 in0.0 mm 0.00 in0.0 mm
03:00 PM 64.1°F17.8°C 48.1°F8.9°C 56% 9.2 mph W14.8 kmh W 13.8 mph22.2 kmh 30.03 in1016.9 mb - 0.00 in0.0 mm 0.00 in0.0 mm
03:10 PM 63.7°F17.6°C 47.7°F8.7°C 56% 6.9 mph W11.1 kmh W 9.2 mph14.8 kmh 30.03 in1016.9 mb - 0.00 in0.0 mm 0.00 in0.0 mm
03:20 PM 64.1°F17.8°C 47.1°F8.4°C 54% 6.9 mph WSW11.1 kmh WSW 11.5 mph18.5 kmh 30.03 in1016.9 mb - 0.00 in0.0 mm 0.00 in0.0 mm
03:30 PM 64.5°F18.1°C 48.4°F9.1°C 56% 5.8 mph W9.3 kmh W 11.5 mph18.5 kmh 30.02 in1016.6 mb - 0.00 in0.0 mm 0.00 in0.0 mm
03:40 PM 63.8°F17.7°C 47.8°F8.8°C 56% 6.9 mph WSW11.1 kmh WSW 11.5 mph18.5 kmh 30.02 in1016.6 mb - 0.00 in0.0 mm 0.00 in0.0 mm
03:50 PM 63.7°F17.6°C 47.7°F8.7°C 56% 8.1 mph WSW13.0 kmh WSW 11.5 mph18.5 kmh 30.02 in1016.6 mb - 0.00 in0.0 mm 0.00 in0.0 mm
04:00 PM 63.3°F17.4°C 47.8°F8.8°C 57% 6.9 mph W11.1 kmh W 12.7 mph20.4 kmh 30.02 in1016.6 mb - 0.00 in0.0 mm 0.00 in0.0 mm
04:10 PM 62.3°F16.8°C 47.8°F8.8°C 59% 5.8 mph NW9.3 kmh NW 9.2 mph14.8 kmh 30.02 in1016.6 mb - 0.00 in0.0 mm 0.00 in0.0 mm
04:20 PM 62.9°F17.2°C 47.5°F8.6°C 57% 6.9 mph WSW11.1 kmh WSW 11.5 mph18.5 kmh 30.02 in1016.6 mb - 0.00 in0.0 mm 0.00 in0.0 mm
04:30 PM 63.0°F17.2°C 47.5°F8.6°C 57% 4.6 mph WSW7.4 kmh WSW 9.2 mph14.8 kmh 30.02 in1016.6 mb - 0.00 in0.0 mm 0.00 in0.0 mm
04:40 PM 63.2°F17.3°C 47.2°F8.4°C 56% 5.8 mph SW9.3 kmh SW 11.5 mph18.5 kmh 30.01 in1016.3 mb - 0.00 in0.0 mm 0.00 in0.0 mm
04:50 PM 63.1°F17.3°C 46.6°F8.1°C 55% 9.2 mph SW14.8 kmh SW 13.8 mph22.2 kmh 30.02 in1016.6 mb - 0.00 in0.0 mm 0.00 in0.0 mm
05:00 PM 62.8°F17.1°C 47.3°F8.5°C 57% 4.6 mph WSW7.4 kmh WSW 8.1 mph13.0 kmh 30.02 in1016.6 mb - 0.00 in0.0 mm 0.00 in0.0 mm
05:10 PM 62.6°F17.0°C 46.7°F8.2°C 56% 6.9 mph W11.1 kmh W 11.5 mph18.5 kmh 30.01 in1016.3 mb - 0.00 in0.0 mm 0.00 in0.0 mm
05:20 PM 62.5°F16.9°C 46.6°F8.1°C 56% 6.9 mph WSW11.1 kmh WSW 12.7 mph20.4 kmh 30.01 in1016.3 mb - 0.00 in0.0 mm 0.00 in0.0 mm
05:30 PM 62.2°F16.8°C 46.8°F8.2°C 57% 5.8 mph WSW9.3 kmh WSW 8.1 mph13.0 kmh 30.01 in1016.3 mb - 0.00 in0.0 mm 0.00 in0.0 mm
05:40 PM 61.6°F16.4°C 46.7°F8.2°C 58% 6.9 mph WNW11.1 kmh WNW 11.5 mph18.5 kmh 30.00 in1015.9 mb - 0.00 in0.0 mm 0.00 in0.0 mm
05:50 PM 60.8°F16.0°C 45.4°F7.4°C 57% 5.8 mph W9.3 kmh W 8.1 mph13.0 kmh 30.00 in1015.9 mb - 0.00 in0.0 mm 0.00 in0.0 mm
06:00 PM 59.6°F15.3°C 46.5°F8.1°C 62% 4.6 mph W7.4 kmh W 6.9 mph11.1 kmh 30.00 in1015.9 mb - 0.00 in0.0 mm 0.00 in0.0 mm
06:10 PM 58.7°F14.8°C 46.5°F8.1°C 64% 3.5 mph W5.6 kmh W 6.9 mph11.1 kmh 29.99 in1015.6 mb - 0.00 in0.0 mm 0.00 in0.0 mm
06:20 PM 57.9°F14.4°C 46.6°F8.1°C 66% 3.5 mph WSW5.6 kmh WSW 5.8 mph9.3 kmh 30.00 in1015.9 mb - 0.00 in0.0 mm 0.00 in0.0 mm
06:30 PM 57.4°F14.1°C 46.5°F8.1°C 67% 2.3 mph SW3.7 kmh SW 5.8 mph9.3 kmh 30.00 in1015.9 mb - 0.00 in0.0 mm 0.00 in0.0 mm
06:40 PM 57.1°F13.9°C 46.6°F8.1°C 68% 2.3 mph W3.7 kmh W 5.8 mph9.3 kmh 29.99 in1015.6 mb - 0.00 in0.0 mm 0.00 in0.0 mm
06:50 PM 57.0°F13.9°C 46.5°F8.1°C 68% 3.5 mph WSW5.6 kmh WSW 6.9 mph11.1 kmh 29.99 in1015.6 mb - 0.00 in0.0 mm 0.00 in0.0 mm
07:00 PM 56.9°F13.8°C 46.4°F8.0°C 68% 2.3 mph SE3.7 kmh SE 4.6 mph7.4 kmh 29.98 in1015.2 mb - 0.00 in0.0 mm 0.00 in0.0 mm
07:10 PM 56.8°F13.8°C 46.7°F8.2°C 69% 3.5 mph WSW5.6 kmh WSW 5.8 mph9.3 kmh 29.99 in1015.6 mb - 0.00 in0.0 mm 0.00 in0.0 mm
07:20 PM 56.7°F13.7°C 46.6°F8.1°C 69% 4.6 mph WNW7.4 kmh WNW 8.1 mph13.0 kmh 29.99 in1015.6 mb - 0.00 in0.0 mm 0.00 in0.0 mm
07:30 PM 56.6°F13.7°C 46.9°F8.3°C 70% 3.5 mph WSW5.6 kmh WSW 5.8 mph9.3 kmh 29.99 in1015.6 mb - 0.00 in0.0 mm 0.00 in0.0 mm
07:40 PM 56.5°F13.6°C 46.9°F8.3°C 70% 3.5 mph W5.6 kmh W 5.8 mph9.3 kmh 29.99 in1015.6 mb - 0.00 in0.0 mm 0.00 in0.0 mm
07:50 PM 56.5°F13.6°C 46.8°F8.2°C 70% 2.3 mph WSW3.7 kmh WSW 4.6 mph7.4 kmh 29.99 in1015.6 mb - 0.00 in0.0 mm 0.00 in0.0 mm
08:00 PM 56.2°F13.4°C 46.9°F8.3°C 71% 3.5 mph SW5.6 kmh SW 5.8 mph9.3 kmh 29.98 in1015.2 mb - 0.00 in0.0 mm 0.00 in0.0 mm
08:10 PM 56.0°F13.3°C 46.7°F8.2°C 71% 2.3 mph WSW3.7 kmh WSW 5.8 mph9.3 kmh 29.98 in1015.2 mb - 0.00 in0.0 mm 0.00 in0.0 mm
08:20 PM 55.8°F13.2°C 46.5°F8.1°C 71% Calm Calm -- 29.98 in1015.2 mb - 0.00 in0.0 mm 0.00 in0.0 mm
08:30 PM 55.6°F13.1°C 46.7°F8.2°C 72% Calm Calm -- 29.98 in1015.2 mb - 0.00 in0.0 mm 0.00 in0.0 mm
08:40 PM 55.4°F13.0°C 46.6°F8.1°C 72% Calm Calm -- 29.98 in1015.2 mb - 0.00 in0.0 mm 0.00 in0.0 mm
08:50 PM 55.3°F12.9°C 46.8°F8.2°C 73% Calm Calm -- 29.98 in1015.2 mb - 0.00 in0.0 mm 0.00 in0.0 mm
09:00 PM 55.3°F12.9°C 46.8°F8.2°C 73% Calm Calm -- 29.97 in1014.9 mb - 0.00 in0.0 mm 0.00 in0.0 mm
09:10 PM 55.3°F12.9°C 47.2°F8.4°C 74% Calm Calm -- 29.97 in1014.9 mb - 0.00 in0.0 mm 0.00 in0.0 mm
09:20 PM 55.3°F12.9°C 47.2°F8.4°C 74% Calm Calm -- 29.97 in1014.9 mb - 0.00 in0.0 mm 0.00 in0.0 mm
09:30 PM 55.3°F12.9°C 47.5°F8.6°C 75% Calm Calm -- 29.96 in1014.6 mb - 0.00 in0.0 mm 0.00 in0.0 mm
09:40 PM 55.2°F12.9°C 47.4°F8.6°C 75% Calm Calm -- 29.96 in1014.6 mb - 0.00 in0.0 mm 0.00 in0.0 mm
09:50 PM 55.3°F12.9°C 47.5°F8.6°C 75% Calm Calm -- 29.95 in1014.2 mb - 0.00 in0.0 mm 0.00 in0.0 mm
10:00 PM 55.3°F12.9°C 47.9°F8.8°C 76% Calm Calm -- 29.95 in1014.2 mb - 0.00 in0.0 mm 0.00 in0.0 mm
10:10 PM 55.3°F12.9°C 47.9°F8.8°C 76% Calm Calm -- 29.95 in1014.2 mb - 0.00 in0.0 mm 0.00 in0.0 mm
10:20 PM 55.4°F13.0°C 47.9°F8.8°C 76% Calm Calm -- 29.95 in1014.2 mb - 0.00 in0.0 mm 0.00 in0.0 mm
10:30 PM 55.5°F13.1°C 48.1°F8.9°C 76% Calm Calm -- 29.94 in1013.9 mb - 0.00 in0.0 mm 0.00 in0.0 mm
10:40 PM 55.6°F13.1°C 48.1°F8.9°C 76% Calm Calm -- 29.94 in1013.9 mb - 0.00 in0.0 mm 0.00 in0.0 mm
10:50 PM 55.6°F13.1°C 48.8°F9.3°C 78% 1.2 mph SSW1.9 kmh SSW 4.6 mph7.4 kmh 29.93 in1013.5 mb - 0.00 in0.0 mm 0.00 in0.0 mm
11:10 PM 55.2°F12.9°C 49.1°F9.5°C 80% 2.3 mph SW3.7 kmh SW 5.8 mph9.3 kmh 29.92 in1013.2 mb - 0.00 in0.0 mm 0.00 in0.0 mm
11:20 PM 55.1°F12.8°C 49.4°F9.7°C 81% 3.5 mph SW5.6 kmh SW 5.8 mph9.3 kmh 29.92 in1013.2 mb - 0.00 in0.0 mm 0.00 in0.0 mm
11:30 PM 55.0°F12.8°C 49.3°F9.6°C 81% 4.6 mph SSW7.4 kmh SSW 6.9 mph11.1 kmh 29.91 in1012.9 mb - 0.00 in0.0 mm 0.00 in0.0 mm
11:40 PM 55.0°F12.8°C 49.6°F9.8°C 82% 3.5 mph SW5.6 kmh SW 4.6 mph7.4 kmh 29.91 in1012.9 mb - 0.01 in0.3 mm 0.01 in0.3 mm
11:50 PM 54.9°F12.7°C 49.5°F9.7°C 82% 2.3 mph SSW3.7 kmh SSW 4.6 mph7.4 kmh 29.91 in1012.9 mb - 0.01 in0.3 mm 0.01 in0.3 mm